createdAt,value
2022-08-05T00:01:27.726Z,38.48
2022-08-05T00:03:54.597Z,39.10
2022-08-05T00:06:30.661Z,38.98
2022-08-05T00:09:00.432Z,39.28
2022-08-05T00:11:30.249Z,39.04
2022-08-05T00:13:57.278Z,39.23
2022-08-05T00:16:35.692Z,39.40
2022-08-05T00:19:10.232Z,39.38
2022-08-05T00:21:36.578Z,40.62
2022-08-05T00:24:05.089Z,40.17
2022-08-05T00:26:37.218Z,40.36
2022-08-05T00:29:03.558Z,40.27
2022-08-05T00:31:53.427Z,39.71
2022-08-05T00:34:53.694Z,39.82
2022-08-05T00:37:10.806Z,40.54
2022-08-05T00:39:44.220Z,40.64
2022-08-05T00:42:38.287Z,39.92
2022-08-05T00:45:08.449Z,39.89
2022-08-05T00:47:56.381Z,41.49
2022-08-05T00:50:22.453Z,41.23
2022-08-05T00:52:52.153Z,42.71
2022-08-05T00:55:19.802Z,41.91
2022-08-05T00:57:58.399Z,40.80
2022-08-05T01:00:26.269Z,40.61
2022-08-05T01:02:52.793Z,40.14
2022-08-05T01:05:19.590Z,40.68
2022-08-05T01:08:42.368Z,40.46
2022-08-05T01:10:40.388Z,40.80
2022-08-05T01:13:57.358Z,41.21
2022-08-05T01:16:30.505Z,41.79
2022-08-05T01:19:06.581Z,41.61
2022-08-05T01:21:51.129Z,41.58
2022-08-05T01:24:51.527Z,41.57
2022-08-05T01:27:28.915Z,41.70
2022-08-05T01:30:04.020Z,42.86
2022-08-05T01:32:33.382Z,43.24
2022-08-05T01:35:10.560Z,44.20
2022-08-05T01:37:45.392Z,45.59
2022-08-05T01:40:14.199Z,46.21
2022-08-05T01:42:45.941Z,46.30
2022-08-05T01:45:15.585Z,46.72
2022-08-05T01:47:46.219Z,46.01
2022-08-05T01:50:28.638Z,46.18
2022-08-05T01:52:59.845Z,45.99
2022-08-05T01:55:30.719Z,46.35
2022-08-05T01:58:13.574Z,46.92
2022-08-05T02:00:48.624Z,46.76
2022-08-05T02:03:32.138Z,46.87
2022-08-05T02:06:03.530Z,47.16
2022-08-05T02:08:54.821Z,47.26
2022-08-05T02:11:32.859Z,47.43
2022-08-05T02:14:17.316Z,48.03
2022-08-05T02:16:53.159Z,48.49
2022-08-05T02:19:27.303Z,48.15
2022-08-05T02:22:25.650Z,48.15
2022-08-05T02:25:00.207Z,48.40
2022-08-05T02:27:30.135Z,48.58
2022-08-05T02:30:13.984Z,48.78
2022-08-05T02:32:43.313Z,48.44
2022-08-05T02:35:15.453Z,48.33
2022-08-05T02:37:53.940Z,48.56
2022-08-05T02:40:22.896Z,49.66
2022-08-05T02:42:54.147Z,50.26
2022-08-05T02:45:23.870Z,50.53
2022-08-05T02:48:07.304Z,50.78
2022-08-05T02:50:43.982Z,50.70
2022-08-05T02:53:16.100Z,50.27
2022-08-05T02:55:52.178Z,50.04
2022-08-05T02:58:23.137Z,50.48
2022-08-05T03:00:56.256Z,50.50
2022-08-05T03:03:23.411Z,50.48
2022-08-05T03:06:55.330Z,50.50
2022-08-05T03:08:38.982Z,50.58
2022-08-05T03:11:55.383Z,50.46
2022-08-05T03:14:07.898Z,50.35
2022-08-05T03:16:35.733Z,51.03
2022-08-05T03:19:12.570Z,51.41
2022-08-05T03:21:49.624Z,51.04
2022-08-05T03:24:29.404Z,52.59
2022-08-05T03:26:58.505Z,53.11
2022-08-05T03:29:24.853Z,53.79
2022-08-05T03:32:12.901Z,53.77
2022-08-05T03:34:42.154Z,54.76
2022-08-05T03:37:18.379Z,54.86
2022-08-05T03:40:01.172Z,55.49
2022-08-05T03:42:28.895Z,55.04
2022-08-05T03:44:55.762Z,54.71
2022-08-05T03:47:23.789Z,54.35
2022-08-05T03:49:51.375Z,54.26
2022-08-05T03:52:37.588Z,53.84
2022-08-05T03:56:05.239Z,53.39
2022-08-05T03:58:09.059Z,52.78
2022-08-05T04:00:38.969Z,53.67
2022-08-05T04:03:26.764Z,53.19
2022-08-05T04:05:57.632Z,54.10
2022-08-05T04:08:35.301Z,54.55
2022-08-05T04:11:04.626Z,53.89
2022-08-05T04:13:50.909Z,53.50
2022-08-05T04:16:25.275Z,52.74
2022-08-05T04:18:58.529Z,53.18
2022-08-05T04:22:09.301Z,52.89
2022-08-05T04:24:19.767Z,50.95
2022-08-05T04:26:49.935Z,50.39
2022-08-05T04:29:16.439Z,49.67
2022-08-05T04:31:43.018Z,49.05
2022-08-05T04:34:31.870Z,48.88
2022-08-05T04:36:55.867Z,48.80
2022-08-05T04:39:22.502Z,49.84
2022-08-05T04:41:51.002Z,50.74
2022-08-05T04:44:28.979Z,51.28
2022-08-05T04:46:56.647Z,51.42
2022-08-05T04:49:24.579Z,52.05
2022-08-05T04:52:04.859Z,51.36
2022-08-05T04:54:34.104Z,50.72
2022-08-05T04:57:00.437Z,50.87
2022-08-05T04:59:39.100Z,50.14
2022-08-05T05:02:36.166Z,50.11
2022-08-05T05:05:02.737Z,50.15
2022-08-05T05:07:32.876Z,50.82
2022-08-05T05:10:05.230Z,50.75
2022-08-05T05:12:32.094Z,50.43
2022-08-05T05:14:58.424Z,50.41
2022-08-05T05:17:55.864Z,50.84
2022-08-05T05:20:13.179Z,51.35
2022-08-05T05:22:40.801Z,51.71
2022-08-05T05:25:16.782Z,51.49
2022-08-05T05:27:45.820Z,50.88
2022-08-05T05:30:29.466Z,50.37
2022-08-05T05:33:00.385Z,49.86
2022-08-05T05:35:29.089Z,49.86
2022-08-05T05:38:03.418Z,49.91
2022-08-05T05:40:32.672Z,49.96
2022-08-05T05:43:02.086Z,49.91
2022-08-05T05:45:29.141Z,50.06
2022-08-05T05:48:07.007Z,49.93
2022-08-05T05:50:41.112Z,49.68
2022-08-05T05:53:21.506Z,49.91
2022-08-05T05:55:51.839Z,49.82
2022-08-05T05:58:31.707Z,49.84
2022-08-05T06:01:12.237Z,49.87
2022-08-05T06:04:00.522Z,49.90
2022-08-05T06:06:27.847Z,50.22
2022-08-05T06:08:58.014Z,50.05
2022-08-05T06:11:24.520Z,50.00
2022-08-05T06:13:54.029Z,49.88
2022-08-05T06:16:30.902Z,49.57
2022-08-05T06:19:01.865Z,49.54
2022-08-05T06:21:36.770Z,48.22
2022-08-05T06:24:04.476Z,48.43
2022-08-05T06:26:31.894Z,48.56
2022-08-05T06:29:03.335Z,48.47
2022-08-05T06:31:32.785Z,48.06
2022-08-05T06:34:07.001Z,47.91
2022-08-05T06:36:45.992Z,47.71
2022-08-05T06:39:21.865Z,47.88
2022-08-05T06:41:51.005Z,47.36
2022-08-05T06:44:18.644Z,46.75
2022-08-05T06:46:51.107Z,48.16
2022-08-05T06:49:17.792Z,47.99
2022-08-05T06:51:45.507Z,47.01
2022-08-05T06:54:18.972Z,46.51
2022-08-05T06:56:54.708Z,46.47
2022-08-05T06:59:38.746Z,46.51
2022-08-05T07:02:08.853Z,45.45
2022-08-05T07:04:35.291Z,45.02
2022-08-05T07:07:03.090Z,45.17
2022-08-05T07:09:40.432Z,44.74
2022-08-05T07:12:07.799Z,44.60
2022-08-05T07:14:54.097Z,44.67
2022-08-05T07:17:58.538Z,43.90
2022-08-05T07:22:54.130Z,43.12
2022-08-05T07:25:23.515Z,42.48
2022-08-05T07:28:08.227Z,41.70
2022-08-05T07:30:39.765Z,41.99
2022-08-05T07:33:16.074Z,41.67
2022-08-05T07:36:05.300Z,41.81
2022-08-05T07:38:33.720Z,41.34
2022-08-05T07:42:08.072Z,41.24
2022-08-05T07:43:58.032Z,40.78
2022-08-05T07:46:30.505Z,41.17
2022-08-05T07:49:02.124Z,40.71
2022-08-05T07:51:41.110Z,39.84
2022-08-05T07:54:15.925Z,39.60
2022-08-05T07:57:01.950Z,39.23
2022-08-05T07:59:39.952Z,38.83
2022-08-05T08:02:16.286Z,39.30
2022-08-05T08:04:45.027Z,38.66
2022-08-05T08:07:12.070Z,39.35
2022-08-05T08:09:38.461Z,39.71
2022-08-05T08:12:11.508Z,39.78
2022-08-05T08:14:46.649Z,39.36
2022-08-05T08:17:16.043Z,39.10
2022-08-05T08:20:21.419Z,39.32
2022-08-05T08:22:30.861Z,39.64
2022-08-05T08:25:02.808Z,39.70
2022-08-05T08:27:40.057Z,39.41
2022-08-05T08:30:30.058Z,40.11
2022-08-05T08:32:58.328Z,39.59
2022-08-05T08:35:34.636Z,39.46
2022-08-05T08:38:01.572Z,39.80
2022-08-05T08:40:28.693Z,39.24
2022-08-05T08:42:56.571Z,39.19
2022-08-05T08:45:26.959Z,38.91
2022-08-05T08:48:06.695Z,38.54
2022-08-05T08:51:03.372Z,38.21
2022-08-05T08:53:34.240Z,37.98
2022-08-05T08:56:05.984Z,37.23
2022-08-05T08:58:43.033Z,37.70
2022-08-05T09:01:16.483Z,37.87
2022-08-05T09:03:46.748Z,37.15
2022-08-05T09:06:17.208Z,35.50
2022-08-05T09:08:46.710Z,36.50
2022-08-05T09:11:14.741Z,36.57
2022-08-05T09:14:09.069Z,36.91
2022-08-05T09:16:31.803Z,36.34
2022-08-05T09:18:59.282Z,35.92
2022-08-05T09:22:21.939Z,36.36
2022-08-05T09:24:15.414Z,35.71
2022-08-05T09:26:46.403Z,36.15
2022-08-05T09:29:18.738Z,36.30
2022-08-05T09:32:41.209Z,36.33
2022-08-05T09:34:54.907Z,36.03
2022-08-05T09:38:12.713Z,36.16
2022-08-05T09:40:40.994Z,36.36
2022-08-05T09:43:40.214Z,35.83
2022-08-05T09:46:32.851Z,35.92
2022-08-05T09:49:19.051Z,35.07
2022-08-05T09:51:50.060Z,34.88
2022-08-05T09:54:21.236Z,34.76
2022-08-05T09:56:55.543Z,34.19
2022-08-05T09:59:24.246Z,33.90
2022-08-05T10:01:57.933Z,33.83
2022-08-05T10:04:35.143Z,33.55
2022-08-05T10:07:06.053Z,33.86
2022-08-05T10:10:04.254Z,33.86
2022-08-05T10:12:50.060Z,33.66
2022-08-05T10:15:22.913Z,34.49
2022-08-05T10:18:10.218Z,34.70
2022-08-05T10:21:08.542Z,34.17
2022-08-05T10:23:55.550Z,34.56
2022-08-05T10:26:32.598Z,33.58
2022-08-05T10:29:00.561Z,33.33
2022-08-05T10:32:55.363Z,33.58
2022-08-05T10:34:13.712Z,33.84
2022-08-05T10:36:42.092Z,33.60
2022-08-05T10:39:24.898Z,33.01
2022-08-05T10:42:32.477Z,32.97
2022-08-05T10:45:02.018Z,33.69
2022-08-05T10:48:30.094Z,33.79
2022-08-05T10:51:00.296Z,33.44
2022-08-05T10:53:39.404Z,32.87
2022-08-05T10:56:25.522Z,32.67
2022-08-05T10:58:55.705Z,32.60
2022-08-05T11:02:14.601Z,32.64
2022-08-05T11:04:55.613Z,32.63
2022-08-05T11:07:32.761Z,32.85
2022-08-05T11:10:03.659Z,32.31
2022-08-05T11:12:43.821Z,32.04
2022-08-05T11:16:00.347Z,32.08
2022-08-05T11:18:32.530Z,31.87
2022-08-05T11:21:02.888Z,31.61
2022-08-05T11:24:29.775Z,31.69
2022-08-05T11:27:29.174Z,31.71
2022-08-05T11:30:15.708Z,31.71
2022-08-05T11:32:42.136Z,32.17
2022-08-05T11:36:07.858Z,32.17
2022-08-05T11:38:51.148Z,31.78
2022-08-05T11:41:56.154Z,32.02
2022-08-05T11:44:12.259Z,31.88
2022-08-05T11:46:58.178Z,31.59
2022-08-05T11:49:34.735Z,31.61
2022-08-05T11:52:01.852Z,31.47
2022-08-05T11:54:38.298Z,31.02
2022-08-05T11:57:39.397Z,31.43
2022-08-05T11:59:55.281Z,30.61
2022-08-05T12:02:33.059Z,30.19
2022-08-05T12:05:07.236Z,29.76
2022-08-05T12:08:10.384Z,29.90
2022-08-05T12:10:43.651Z,29.66
2022-08-05T12:13:18.780Z,29.91
2022-08-05T12:16:15.084Z,29.67
2022-08-05T12:18:49.033Z,30.08
2022-08-05T12:21:19.237Z,29.82
2022-08-05T12:24:27.888Z,29.70
2022-08-05T12:26:54.932Z,29.17
2022-08-05T12:29:23.793Z,28.00
2022-08-05T12:31:55.471Z,28.05
2022-08-05T12:34:26.642Z,28.33
2022-08-05T12:36:54.308Z,28.32
2022-08-05T12:39:23.649Z,28.27
2022-08-05T12:41:59.197Z,28.39
2022-08-05T12:44:33.006Z,28.87
2022-08-05T12:47:01.834Z,30.65
2022-08-05T12:50:04.071Z,29.90
2022-08-05T12:52:37.733Z,32.30
2022-08-05T12:55:23.046Z,32.76
2022-08-05T12:58:38.830Z,33.27
2022-08-05T13:02:00.416Z,33.17
2022-08-05T13:03:32.055Z,32.24
2022-08-05T13:05:58.998Z,32.12
2022-08-05T13:08:29.944Z,31.88
2022-08-05T13:11:02.791Z,31.97
2022-08-05T13:14:04.991Z,31.87
2022-08-05T13:16:20.151Z,32.07
2022-08-05T13:18:58.435Z,31.65
2022-08-05T13:21:28.300Z,31.93
2022-08-05T13:24:06.184Z,31.62
2022-08-05T13:26:35.408Z,31.33
2022-08-05T13:29:01.975Z,31.70
2022-08-05T13:31:33.847Z,31.08
2022-08-05T13:34:24.191Z,30.99
2022-08-05T13:36:55.652Z,31.23
2022-08-05T13:39:24.468Z,31.31
2022-08-05T13:42:14.736Z,31.24
2022-08-05T13:44:45.534Z,32.17
2022-08-05T13:47:35.970Z,31.72
2022-08-05T13:50:00.806Z,32.03
2022-08-05T13:52:31.166Z,31.09
2022-08-05T13:55:02.425Z,30.95
2022-08-05T13:57:50.988Z,31.23
2022-08-05T14:00:18.316Z,30.59
2022-08-05T14:02:53.103Z,30.89
2022-08-05T14:05:48.359Z,30.18
2022-08-05T14:08:20.451Z,29.61
2022-08-05T14:10:52.749Z,29.43
2022-08-05T14:13:26.216Z,29.61
2022-08-05T14:16:07.313Z,28.89
2022-08-05T14:18:35.780Z,28.89
2022-08-05T14:22:08.125Z,28.37
2022-08-05T14:23:50.944Z,28.48
2022-08-05T14:26:37.039Z,28.45
2022-08-05T14:29:04.683Z,29.05
2022-08-05T14:32:03.832Z,28.70
2022-08-05T14:34:17.948Z,27.77
2022-08-05T14:36:50.081Z,28.17
2022-08-05T14:39:23.539Z,27.46
2022-08-05T14:42:16.698Z,27.44
2022-08-05T14:44:36.579Z,28.16
2022-08-05T14:47:03.676Z,27.50
2022-08-05T14:49:56.375Z,27.86
2022-08-05T14:52:36.347Z,28.45
2022-08-05T14:55:02.870Z,27.90
2022-08-05T14:57:34.119Z,27.74
2022-08-05T15:00:16.281Z,28.09
2022-08-05T15:02:47.106Z,27.65
2022-08-05T15:05:14.079Z,27.97
2022-08-05T15:08:05.485Z,27.28
2022-08-05T15:10:28.789Z,27.39
2022-08-05T15:13:00.830Z,26.82
2022-08-05T15:15:55.802Z,26.77
2022-08-05T15:18:17.301Z,27.03
2022-08-05T15:20:43.867Z,27.04
2022-08-05T15:23:13.100Z,26.34
2022-08-05T15:25:52.738Z,26.41
2022-08-05T15:28:24.405Z,25.97
2022-08-05T15:30:54.292Z,26.03
2022-08-05T15:33:56.719Z,26.14
2022-08-05T15:36:09.094Z,26.01
2022-08-05T15:38:44.829Z,25.72
2022-08-05T15:41:22.533Z,25.92
2022-08-05T15:43:50.276Z,26.05
2022-08-05T15:46:18.858Z,26.01
2022-08-05T15:48:52.459Z,25.80
2022-08-05T15:52:04.355Z,25.36
2022-08-05T15:54:15.240Z,25.68
2022-08-05T15:56:42.201Z,25.70
2022-08-05T15:59:09.936Z,26.42
2022-08-05T16:01:52.322Z,26.56
2022-08-05T16:04:19.965Z,26.81
2022-08-05T16:06:46.372Z,27.56
2022-08-05T16:09:13.175Z,27.38
2022-08-05T16:11:43.311Z,27.31
2022-08-05T16:14:10.457Z,26.97
2022-08-05T16:16:43.962Z,27.38
2022-08-05T16:19:12.765Z,26.86
2022-08-05T16:22:00.560Z,26.72
2022-08-05T16:24:40.381Z,27.44
2022-08-05T16:27:08.667Z,27.38
2022-08-05T16:29:37.355Z,26.69
2022-08-05T16:32:06.221Z,27.22
2022-08-05T16:34:32.772Z,27.29
2022-08-05T16:36:59.210Z,27.92
2022-08-05T16:40:05.100Z,27.25
2022-08-05T16:42:14.084Z,26.65
2022-08-05T16:44:44.365Z,26.33
2022-08-05T16:47:28.631Z,27.44
2022-08-05T16:50:04.266Z,26.82
2022-08-05T16:52:33.487Z,26.65
2022-08-05T16:55:00.103Z,26.81
2022-08-05T16:57:42.936Z,27.50
2022-08-05T17:00:14.157Z,28.00
2022-08-05T17:02:52.197Z,27.54
2022-08-05T17:05:18.900Z,28.80
2022-08-05T17:07:54.729Z,28.91
2022-08-05T17:10:21.531Z,30.50
2022-08-05T17:12:57.309Z,30.90
2022-08-05T17:15:24.059Z,30.33
2022-08-05T17:17:55.960Z,31.39
2022-08-05T17:20:24.959Z,31.60
2022-08-05T17:22:55.290Z,34.76
2022-08-05T17:25:39.533Z,33.96
2022-08-05T17:28:06.695Z,40.06
2022-08-05T17:30:50.790Z,44.95
2022-08-05T17:33:18.661Z,46.78
2022-08-05T17:36:09.197Z,50.59
2022-08-05T17:38:32.777Z,52.12
2022-08-05T17:40:59.450Z,51.98
2022-08-05T17:43:47.013Z,51.59
2022-08-05T17:46:12.624Z,50.35
2022-08-05T17:48:39.965Z,50.21
2022-08-05T17:51:09.727Z,49.27
2022-08-05T17:53:36.167Z,50.31
2022-08-05T17:56:04.457Z,55.07
2022-08-05T17:58:32.597Z,56.36
2022-08-05T18:00:59.335Z,58.97
2022-08-05T18:03:59.348Z,58.33
2022-08-05T18:06:15.462Z,57.86
2022-08-05T18:08:45.089Z,58.12
2022-08-05T18:11:23.752Z,55.57
2022-08-05T18:13:59.560Z,56.42
2022-08-05T18:16:26.203Z,56.17
2022-08-05T18:18:52.615Z,56.68
2022-08-05T18:21:22.943Z,57.21
2022-08-05T18:23:53.749Z,57.28
2022-08-05T18:26:21.840Z,57.54
2022-08-05T18:28:54.757Z,57.27
2022-08-05T18:31:32.983Z,55.49
2022-08-05T18:34:02.651Z,54.03
2022-08-05T18:36:29.399Z,55.13
2022-08-05T18:38:56.073Z,54.58
2022-08-05T18:41:53.579Z,54.94
2022-08-05T18:44:10.891Z,55.54
2022-08-05T18:46:40.923Z,55.48
2022-08-05T18:49:30.732Z,55.91
2022-08-05T18:52:32.852Z,55.28
2022-08-05T18:55:00.084Z,56.30
2022-08-05T18:57:26.505Z,59.12
2022-08-05T19:00:20.309Z,62.38
2022-08-05T19:02:47.766Z,65.17
2022-08-05T19:06:11.210Z,69.21
2022-08-05T19:08:02.819Z,72.91
2022-08-05T19:10:30.333Z,76.55
2022-08-05T19:12:57.282Z,77.79
2022-08-05T19:15:59.816Z,77.87
2022-08-05T19:18:20.606Z,75.46
2022-08-05T19:20:51.951Z,72.23
2022-08-05T19:24:05.807Z,71.14
2022-08-05T19:26:04.883Z,71.68
2022-08-05T19:28:34.965Z,70.73
2022-08-05T19:31:05.853Z,69.38
2022-08-05T19:33:36.126Z,68.28
2022-08-05T19:36:07.004Z,67.26
2022-08-05T19:38:36.773Z,66.96
2022-08-05T19:41:07.296Z,66.05
2022-08-05T19:44:06.227Z,65.54
2022-08-05T19:46:29.539Z,66.06
2022-08-05T19:48:57.409Z,64.28
2022-08-05T19:52:08.741Z,64.04
2022-08-05T19:54:21.937Z,64.49
2022-08-05T19:56:57.710Z,64.09
2022-08-05T19:59:56.355Z,64.48
2022-08-05T20:02:10.460Z,65.77
2022-08-05T20:04:37.481Z,65.35
2022-08-05T20:07:13.020Z,65.77
2022-08-05T20:09:53.894Z,65.87
2022-08-05T20:12:23.655Z,66.02
2022-08-05T20:14:52.211Z,65.11
2022-08-05T20:17:19.239Z,65.26
2022-08-05T20:19:50.282Z,65.57
2022-08-05T20:22:16.712Z,64.59
2022-08-05T20:24:43.043Z,64.44
2022-08-05T20:27:11.289Z,64.36
2022-08-05T20:29:38.253Z,64.01
2022-08-05T20:32:06.483Z,64.02
2022-08-05T20:34:32.923Z,63.05
2022-08-05T20:37:00.666Z,63.80
2022-08-05T20:39:35.485Z,63.20
2022-08-05T20:42:04.151Z,63.51
2022-08-05T20:44:32.972Z,63.68
2022-08-05T20:47:06.762Z,63.48
2022-08-05T20:49:39.250Z,63.49
2022-08-05T20:52:07.166Z,63.25
2022-08-05T20:54:43.540Z,64.00
2022-08-05T20:57:42.213Z,63.38
2022-08-05T21:00:19.623Z,63.61
2022-08-05T21:02:57.698Z,63.30
2022-08-05T21:05:24.677Z,63.29
2022-08-05T21:07:52.396Z,64.08
2022-08-05T21:10:19.156Z,63.69
2022-08-05T21:13:08.216Z,64.09
2022-08-05T21:15:33.857Z,63.98
2022-08-05T21:18:00.482Z,64.32
2022-08-05T21:20:33.531Z,64.81
2022-08-05T21:23:00.753Z,64.53
2022-08-05T21:25:33.654Z,64.41
2022-08-05T21:28:02.283Z,64.88
2022-08-05T21:30:28.997Z,65.12
2022-08-05T21:32:55.324Z,64.56
2022-08-05T21:35:29.929Z,64.36
2022-08-05T21:38:09.127Z,65.14
2022-08-05T21:40:36.795Z,64.88
2022-08-05T21:43:08.295Z,64.65
2022-08-05T21:45:56.963Z,65.32
2022-08-05T21:48:24.529Z,65.19
2022-08-05T21:50:54.013Z,65.42
2022-08-05T21:53:20.811Z,64.94
2022-08-05T21:56:05.224Z,65.26
2022-08-05T21:58:33.662Z,65.13
2022-08-05T22:01:00.730Z,65.99
2022-08-05T22:03:52.200Z,65.30
2022-08-05T22:06:15.739Z,64.53
2022-08-05T22:08:42.582Z,65.54
2022-08-05T22:11:11.756Z,65.57
2022-08-05T22:14:34.264Z,65.77
2022-08-05T22:16:51.250Z,66.25
2022-08-05T22:19:56.357Z,66.34
2022-08-05T22:22:01.284Z,66.22
2022-08-05T22:24:52.208Z,66.57
2022-08-05T22:28:10.421Z,66.82
2022-08-05T22:30:24.741Z,65.78
2022-08-05T22:32:58.855Z,66.12
2022-08-05T22:35:25.239Z,66.31
2022-08-05T22:37:58.045Z,66.70
2022-08-05T22:40:26.201Z,65.65
2022-08-05T22:42:57.797Z,66.64
2022-08-05T22:45:26.256Z,67.67
2022-08-05T22:47:55.370Z,67.52
2022-08-05T22:50:27.675Z,68.12
2022-08-05T22:52:55.167Z,68.26
2022-08-05T22:55:23.617Z,67.85
2022-08-05T22:57:52.049Z,67.53
2022-08-05T23:00:20.764Z,67.79
2022-08-05T23:02:48.578Z,69.07
2022-08-05T23:05:15.935Z,68.53
2022-08-05T23:07:44.968Z,68.62
2022-08-05T23:10:12.083Z,67.36
2022-08-05T23:12:38.403Z,67.76
2022-08-05T23:15:08.883Z,67.35
2022-08-05T23:17:37.878Z,67.76
2022-08-05T23:20:23.588Z,66.78
2022-08-05T23:22:51.002Z,66.87
2022-08-05T23:25:52.053Z,66.13
2022-08-05T23:28:09.018Z,67.38
2022-08-05T23:30:40.418Z,70.38
2022-08-05T23:33:22.261Z,70.38
2022-08-05T23:35:55.878Z,68.54
2022-08-05T23:38:24.228Z,69.81
2022-08-05T23:40:52.667Z,68.45
2022-08-05T23:43:25.765Z,68.23
2022-08-05T23:46:21.062Z,68.34
2022-08-05T23:49:01.075Z,68.41
2022-08-05T23:51:53.596Z,68.35
2022-08-05T23:54:30.051Z,67.71
2022-08-05T23:57:03.950Z,67.75
